Home   Weather   Spain   Alicante   Past weeks
Flag for Spain

Past Weather in Alicante, Alicante, Spain — Yesterday and Last 2 Weeks

Currently: 72 °F. Passing clouds. (Weather station: Alicante / El Altet, Spain). See more current weather

Past Weather in Alicante — Graph

°F

Alicante Temperature Yesterday

Maximum temperature yesterday: 75 °F (at 4:30 pm)
Minimum temperature yesterday: 59 °F (at 5:30 am)
Average temperature yesterday: 66 °F

High & Low Weather Summary for the Past Weeks

 TemperatureHumidityPressure
High82 °F (May 7, 11:00 am)100% (Apr 28, 7:00 am)30.15 "Hg (Apr 28, 7:00 am)
Low54 °F (May 5, 4:30 am)21% (May 11, 6:00 pm)29.65 "Hg (Apr 27, 4:00 pm)
Average65 °F68%29.93 "Hg
* Reported Apr 27 4:00 pm — May 12 4:30 pm, Alicante. Weather by CustomWeather, © 2021

Note: Actual official high and low records may vary slightly from our data, if they occured in-between our weather recording intervals... More about our weather records

Alicante Weather History for the Previous 24 Hours

Scroll right to see more
 ConditionsComfort  
Time TempWeatherWind HumidityBarometerVisibility
4:30 pm
Wed, May 12
72 °FPassing clouds.17 mph61%29.95 "HgN/A
4:00 pm73 °FPassing clouds.20 mph50%29.95 "HgN/A
3:30 pm73 °FPassing clouds.17 mph47%29.98 "HgN/A
3:00 pm75 °FPassing clouds.17 mph39%29.98 "HgN/A
2:30 pm75 °FPassing clouds.14 mph36%30.01 "HgN/A
2:00 pm77 °FPassing clouds.12 mph34%30.01 "HgN/A
1:30 pm75 °FPassing clouds.10 mph34%30.01 "HgN/A
1:00 pm75 °FPassing clouds.10 mph31%30.04 "HgN/A
12:30 pm75 °FPassing clouds.8 mph29%30.04 "HgN/A
12:00 pm73 °FPassing clouds.7 mph31%30.07 "HgN/A
11:30 am72 °FSunny.7 mph33%30.07 "Hg10 mi
11:00 am72 °FPassing clouds.7 mph33%30.07 "HgN/A
10:30 am72 °FPassing clouds.7 mph38%30.07 "HgN/A
10:00 am70 °FPassing clouds.7 mph38%30.07 "HgN/A
9:30 am70 °FPassing clouds.6 mph35%30.07 "HgN/A
9:00 am66 °FSunny.8 mph40%30.09 "Hg10 mi
8:30 am63 °FPassing clouds.5 mph49%30.07 "HgN/A
8:00 am57 °FSunny.6 mph59%30.07 "Hg10 mi
7:30 am57 °FPassing clouds.6 mph55%30.07 "HgN/A
7:00 am55 °FSunny.8 mph59%30.07 "Hg10 mi
6:30 am55 °FClear.6 mph59%30.07 "Hg10 mi
6:00 am55 °FClear.6 mph59%30.07 "Hg10 mi
5:30 am54 °FClear.6 mph63%30.07 "Hg10 mi
5:00 am55 °FClear.6 mph59%30.07 "Hg10 mi
4:30 am57 °FClear.6 mph51%30.09 "Hg10 mi
4:00 am59 °FClear.7 mph48%30.09 "Hg10 mi
3:30 am63 °FClear.9 mph42%30.09 "Hg10 mi
3:00 am57 °FClear.6 mph55%30.09 "Hg10 mi
2:30 am55 °FPassing clouds.5 mph67%30.12 "HgN/A
2:00 am55 °FClear.6 mph77%30.12 "Hg10 mi
1:30 am57 °FPassing clouds.5 mph67%30.12 "HgN/A
1:00 am57 °FClear.6 mph72%30.12 "Hg10 mi
12:30 am57 °FClear.5 mph67%30.12 "Hg10 mi
12:00 am59 °FClear.3 mph68%30.12 "Hg10 mi
11:30 pm
Tue, May 11
61 °FClear.6 mph63%30.12 "Hg10 mi
11:00 pm61 °FClear.6 mph63%30.12 "Hg10 mi
10:30 pm63 °FPassing clouds.5 mph64%30.12 "HgN/A
10:00 pm64 °FPassing clouds.3 mph60%30.09 "HgN/A
9:30 pm66 °FPassing clouds.7 mph56%30.09 "HgN/A
9:00 pm66 °FPassing clouds.9 mph56%30.07 "HgN/A
8:30 pm68 °FPassing clouds.10 mph56%30.07 "HgN/A
8:00 pm68 °FPassing clouds.12 mph56%30.07 "HgN/A
7:30 pm72 °FPassing clouds.6 mph50%30.07 "HgN/A
7:00 pm75 °FPassing clouds.7 mph22%30.04 "HgN/A
6:30 pm75 °FPassing clouds.12 mph22%30.07 "HgN/A
6:00 pm75 °FSunny.16 mph21%30.07 "Hg10 mi
5:30 pm75 °FSunny.16 mph22%30.07 "Hg10 mi
5:00 pm75 °FPassing clouds.12 mph22%30.07 "HgN/A
Weather by CustomWeather, © 2021

See weather overview